Aérodrome :
LOGIN :

S'inscrire | Disclaimer

   EN    FR    IT 

 










Légende :    VFR   VFR Marginal   IFR   IFR Intensif   IFR Très Intensif
Visi : 
Plafond : 
>= 8 km
>= 3000ft
5 à 8 km
1000 à 3000 ft
1500m à 5 km
500 à 1000 ft
800 à 1500m
200 à 500 ft
< 800m
< 200 ft
Symboles :   Orages  Brouillard  Fortes neiges  Fortes précipitations  Vent > 20 kt
SIGMETs :   Divers  Orages  Givrage  Turbulence  Onde Orograph.  Cendres Volcan.






- Altitude de l'aérodrome : 919 ft
- Code IATA : IFO


UKLI - Ivano Frankivs'k

DERNIER METAR :
  • 191500Z 00000MPS 9999 OVC010 M01/M04 Q1031 R10/090070 NOSIG

METARs EXPIRÉS :
  • 191430Z 01001MPS 9999 OVC010 M01/M04 Q1030 R28/090070 NOSIG
  • 191400Z 03002MPS 9999 OVC010 M01/M04 Q1030 R28/090070 NOSIG
  • 191330Z 02001MPS 9999 OVC011 M01/M04 Q1030 R28/090070 NOSIG
  • 191300Z 08002MPS 9999 OVC011 M01/M04 Q1029 R28/090070 NOSIG
  • 191230Z VRB01MPS 9999 OVC012 M01/M03 Q1029 R28/090070 NOSIG

TAF TAF UKLI
Valide du 19 à 15h jusqu'au 20 à 00h UTC


191401Z 1915/1924 VRB01MPS 9999 OVC010 TXM01/1915Z TNM04/1924Z
TEMPO 1915/1921 2100 BR OVC005



MET'MAP, la Météo Aéronautique d'un coup d'oeil ! - Copyright ORBIFLY Décembre 2007 - Disclaimer

ORBIFLY MET'MAP TEAM :

Programmation & Développement : Alexandra Zaïnal
Sur une idée originale de : Baudouin d'Aumeries
Assistance à la programmation : Marc-Olivier Méhu
Soutien technique & logistique : Manuel Goepfert

Contact : metmap@orbifly.com




SOURCES & CREDITS :

   NOAA